Repentigny, Canada
Current Conditions -  °F | °C
As of 7:00 PM on Saturday 25 Oct 2014 (Local Time) from CYHU Reporting Station
Overcast Overcast  
Wind Chill: 50°   Ceiling: 2300
Heat Index: 50°   Visibility: 9mi
Dew Point: 48°   Wind: 8mph
Humidity: 94%   Direction: 170°S
Pressure: 29.45"   Gusts: NA
Location:  45.73°N, 73.45°W
Report Text: CYHU 252300Z AUTO 17007KT 140V210 9SM BKN023 OVC032 10/09 A2945 RMK PRESFR PCPN 0.8MM PAST HR SLP973
Loading
Personal Weather Stations






























Interactive Weather Map
Tropical Storm Tracking
New forecast layout! Learn more

10-Day Weather Forecast

Advertisements
Track Severe Weather on mobile